createdAt,value
2022-08-20T00:00:41.653Z,20.18
2022-08-20T00:03:10.009Z,20.19
2022-08-20T00:05:40.499Z,20.18
2022-08-20T00:08:08.488Z,20.17
2022-08-20T00:10:38.159Z,20.17
2022-08-20T00:13:08.105Z,20.18
2022-08-20T00:15:36.872Z,20.18
2022-08-20T00:18:04.802Z,20.15
2022-08-20T00:20:36.231Z,20.12
2022-08-20T00:23:06.243Z,20.08
2022-08-20T00:25:36.730Z,20.05
2022-08-20T00:28:03.587Z,20.01
2022-08-20T00:30:31.211Z,19.98
2022-08-20T00:33:05.130Z,19.95
2022-08-20T00:35:34.712Z,19.93
2022-08-20T00:38:01.892Z,19.91
2022-08-20T00:40:40.107Z,19.89
2022-08-20T00:43:23.888Z,19.91
2022-08-20T00:45:50.502Z,19.90
2022-08-20T00:48:17.036Z,19.90
2022-08-20T00:50:43.686Z,19.89
2022-08-20T00:53:10.363Z,19.88
2022-08-20T00:55:37.382Z,19.85
2022-08-20T00:58:08.018Z,19.83
2022-08-20T01:00:47.217Z,19.82
2022-08-20T01:03:15.819Z,19.81
2022-08-20T01:05:45.792Z,19.79
2022-08-20T01:08:13.433Z,19.74
2022-08-20T01:10:43.539Z,19.71
2022-08-20T01:13:14.124Z,19.67
2022-08-20T01:15:44.393Z,19.63
2022-08-20T01:18:17.926Z,19.59
2022-08-20T01:20:49.475Z,19.55
2022-08-20T01:23:40.545Z,19.54
2022-08-20T01:26:25.843Z,19.53
2022-08-20T01:28:59.197Z,19.52
2022-08-20T01:31:31.968Z,19.53
2022-08-20T01:34:00.695Z,19.51
2022-08-20T01:36:35.187Z,19.48
2022-08-20T01:39:02.978Z,19.45
2022-08-20T01:41:45.480Z,19.43
2022-08-20T01:44:16.901Z,19.40
2022-08-20T01:46:50.631Z,19.38
2022-08-20T01:49:25.387Z,19.38
2022-08-20T01:51:54.955Z,19.42
2022-08-20T01:54:23.368Z,19.41
2022-08-20T01:57:10.512Z,19.37
2022-08-20T01:59:37.169Z,19.33
2022-08-20T02:02:04.192Z,19.28
2022-08-20T02:04:31.159Z,19.25
2022-08-20T02:07:00.673Z,19.24
2022-08-20T02:09:30.472Z,19.22
2022-08-20T02:11:58.374Z,19.20
2022-08-20T02:14:25.806Z,19.17
2022-08-20T02:16:54.989Z,19.11
2022-08-20T02:19:53.756Z,19.07
2022-08-20T02:22:44.257Z,19.03
2022-08-20T02:25:19.385Z,18.99
2022-08-20T02:27:48.083Z,18.97
2022-08-20T02:30:27.748Z,18.97
2022-08-20T02:32:56.533Z,18.96
2022-08-20T02:35:23.551Z,18.95
2022-08-20T02:37:50.573Z,18.94
2022-08-20T02:40:30.056Z,18.94
2022-08-20T02:42:58.757Z,18.96
2022-08-20T02:45:25.684Z,18.96
2022-08-20T02:47:52.563Z,18.97
2022-08-20T02:50:20.813Z,18.98
2022-08-20T02:52:51.742Z,19.00
2022-08-20T02:55:27.485Z,19.02
2022-08-20T02:58:00.258Z,19.04
2022-08-20T03:00:30.083Z,19.06
2022-08-20T03:03:04.911Z,19.09
2022-08-20T03:05:31.478Z,19.10
2022-08-20T03:07:58.319Z,19.14
2022-08-20T03:10:28.606Z,19.18
2022-08-20T03:12:55.620Z,19.20
2022-08-20T03:15:22.267Z,19.22
2022-08-20T03:17:48.991Z,19.24
2022-08-20T03:20:16.294Z,19.26
2022-08-20T03:22:43.173Z,19.28
2022-08-20T03:25:11.010Z,19.28
2022-08-20T03:27:37.827Z,19.24
2022-08-20T03:30:08.578Z,19.20
2022-08-20T03:32:35.421Z,19.17
2022-08-20T03:35:02.271Z,19.14
2022-08-20T03:37:35.505Z,19.13
2022-08-20T03:40:05.213Z,19.12
2022-08-20T03:42:32.646Z,19.12
2022-08-20T03:44:59.487Z,19.13
2022-08-20T03:47:26.746Z,19.13
2022-08-20T03:50:02.324Z,19.14
2022-08-20T03:52:28.953Z,19.15
2022-08-20T03:54:56.812Z,19.16
2022-08-20T03:57:23.368Z,19.17
2022-08-20T03:59:54.860Z,19.19
2022-08-20T04:02:25.472Z,19.23
2022-08-20T04:04:52.352Z,19.27
2022-08-20T04:07:23.014Z,19.33
2022-08-20T04:09:49.461Z,19.40
2022-08-20T04:12:16.058Z,19.47
2022-08-20T04:14:42.650Z,19.57
2022-08-20T04:17:11.893Z,19.65
2022-08-20T04:19:40.243Z,19.75
2022-08-20T04:22:07.359Z,19.82
2022-08-20T04:24:35.267Z,19.88
2022-08-20T04:27:02.334Z,19.91
2022-08-20T04:29:32.103Z,19.95
2022-08-20T04:32:00.507Z,20.02
2022-08-20T04:34:27.375Z,20.13
2022-08-20T04:36:54.220Z,20.26
2022-08-20T04:39:20.866Z,20.42
2022-08-20T04:41:47.508Z,20.59
2022-08-20T04:44:14.260Z,20.74
2022-08-20T04:46:42.653Z,20.89
2022-08-20T04:49:09.794Z,21.11
2022-08-20T04:51:36.463Z,21.39
2022-08-20T04:54:04.004Z,21.70
2022-08-20T04:56:33.845Z,22.00
2022-08-20T04:59:01.925Z,22.31
2022-08-20T05:01:29.408Z,22.56
2022-08-20T05:03:57.771Z,22.87
2022-08-20T05:06:32.006Z,23.24
2022-08-20T05:09:00.547Z,23.56
2022-08-20T05:11:32.862Z,23.79
2022-08-20T05:14:05.818Z,23.92
2022-08-20T05:16:32.627Z,23.99
2022-08-20T05:18:59.115Z,24.10
2022-08-20T05:21:25.749Z,24.19
2022-08-20T05:23:52.311Z,24.35
2022-08-20T05:26:19.032Z,24.44
2022-08-20T05:28:51.178Z,24.63
2022-08-20T05:31:32.115Z,24.87
2022-08-20T05:34:12.655Z,25.09
2022-08-20T05:36:42.785Z,25.33
2022-08-20T05:39:10.141Z,25.68
2022-08-20T05:41:38.250Z,26.04
2022-08-20T05:44:06.075Z,26.29
2022-08-20T05:46:32.840Z,26.55
2022-08-20T05:49:00.504Z,26.79
2022-08-20T05:51:28.549Z,26.99
2022-08-20T05:53:57.435Z,27.11
2022-08-20T05:56:26.780Z,27.50
2022-08-20T05:58:54.174Z,27.79
2022-08-20T06:01:21.489Z,27.95
2022-08-20T06:03:48.350Z,27.73
2022-08-20T06:06:18.326Z,27.65
2022-08-20T06:09:01.765Z,27.90
2022-08-20T06:11:28.277Z,28.08
2022-08-20T06:13:54.850Z,28.14
2022-08-20T06:16:21.451Z,28.34
2022-08-20T06:18:47.975Z,28.42
2022-08-20T06:21:14.698Z,28.57
2022-08-20T06:23:45.524Z,28.67
2022-08-20T06:26:30.199Z,28.83
2022-08-20T06:29:15.951Z,28.62
2022-08-20T06:31:42.674Z,28.66
2022-08-20T06:34:09.242Z,28.84
2022-08-20T06:36:35.877Z,28.77
2022-08-20T06:39:02.712Z,28.62
2022-08-20T06:41:36.847Z,28.37
2022-08-20T06:44:04.485Z,28.49
2022-08-20T06:46:31.134Z,28.89
2022-08-20T06:48:57.879Z,28.90
2022-08-20T06:51:24.526Z,28.70
2022-08-20T06:53:51.092Z,28.85
2022-08-20T06:56:17.579Z,28.86
2022-08-20T06:58:44.354Z,28.93
2022-08-20T07:01:12.052Z,28.98
2022-08-20T07:03:40.410Z,28.97
2022-08-20T07:06:22.722Z,29.13
2022-08-20T07:08:49.388Z,29.47
2022-08-20T07:11:16.114Z,29.69
2022-08-20T07:13:42.684Z,29.81
2022-08-20T07:16:09.395Z,29.54
2022-08-20T07:18:36.039Z,29.47
2022-08-20T07:21:02.794Z,29.39
2022-08-20T07:23:29.661Z,29.33
2022-08-20T07:25:56.385Z,29.24
2022-08-20T07:28:25.622Z,29.40
2022-08-20T07:30:56.745Z,29.76
2022-08-20T07:33:24.720Z,29.80
2022-08-20T07:35:51.555Z,29.87
2022-08-20T07:38:21.505Z,30.08
2022-08-20T07:40:48.134Z,30.05
2022-08-20T07:43:14.922Z,30.34
2022-08-20T07:45:41.561Z,30.74
2022-08-20T07:48:29.757Z,30.76
2022-08-20T07:51:01.852Z,30.73
2022-08-20T07:53:32.324Z,30.83
2022-08-20T07:56:03.810Z,30.84
2022-08-20T07:58:33.258Z,30.63
2022-08-20T08:01:00.669Z,30.21
2022-08-20T08:03:39.596Z,29.91
2022-08-20T08:06:07.914Z,29.80
2022-08-20T08:08:34.537Z,29.74
2022-08-20T08:11:03.939Z,29.70
2022-08-20T08:13:35.838Z,29.81
2022-08-20T08:16:06.654Z,29.98
2022-08-20T08:18:50.089Z,29.99
2022-08-20T08:21:17.714Z,29.75
2022-08-20T08:23:44.724Z,29.63
2022-08-20T08:26:16.329Z,29.50
2022-08-20T08:28:45.908Z,29.34
2022-08-20T08:31:13.369Z,29.36
2022-08-20T08:33:40.223Z,29.42
2022-08-20T08:36:13.692Z,29.28
2022-08-20T08:38:42.612Z,29.18
2022-08-20T08:41:30.471Z,29.33
2022-08-20T08:44:05.252Z,29.53
2022-08-20T08:46:38.795Z,29.68
2022-08-20T08:49:05.544Z,29.71
2022-08-20T08:51:42.765Z,29.99
2022-08-20T08:54:15.695Z,30.26
2022-08-20T08:56:42.609Z,30.81
2022-08-20T08:59:16.185Z,31.37
2022-08-20T09:01:55.424Z,31.63
2022-08-20T09:04:28.009Z,31.76
2022-08-20T09:06:54.745Z,31.93
2022-08-20T09:09:25.304Z,32.06
2022-08-20T09:11:54.805Z,31.90
2022-08-20T09:14:22.155Z,32.04
2022-08-20T09:16:52.835Z,32.19
2022-08-20T09:19:21.257Z,32.18
2022-08-20T09:21:48.025Z,32.08
2022-08-20T09:24:14.623Z,31.98
2022-08-20T09:26:41.335Z,31.99
2022-08-20T09:29:08.085Z,31.87
2022-08-20T09:31:35.798Z,31.65
2022-08-20T09:34:05.336Z,31.59
2022-08-20T09:36:32.910Z,31.51
2022-08-20T09:39:03.071Z,31.35
2022-08-20T09:41:33.677Z,31.26
2022-08-20T09:44:01.757Z,31.40
2022-08-20T09:46:28.429Z,31.45
2022-08-20T09:48:55.599Z,31.76
2022-08-20T09:51:22.950Z,32.03
2022-08-20T09:53:50.360Z,32.30
2022-08-20T09:56:18.202Z,32.38
2022-08-20T09:58:51.130Z,32.31
2022-08-20T10:01:20.200Z,32.42
2022-08-20T10:03:48.248Z,32.36
2022-08-20T10:06:16.121Z,32.31
2022-08-20T10:08:43.747Z,32.27
2022-08-20T10:11:10.260Z,32.11
2022-08-20T10:13:36.838Z,32.08
2022-08-20T10:16:03.915Z,32.22
2022-08-20T10:18:30.449Z,32.35
2022-08-20T10:20:57.207Z,32.42
2022-08-20T10:23:23.768Z,32.47
2022-08-20T10:25:50.460Z,32.48
2022-08-20T10:28:17.012Z,32.28
2022-08-20T10:30:43.670Z,32.17
2022-08-20T10:33:10.166Z,32.09
2022-08-20T10:35:37.029Z,32.05
2022-08-20T10:38:03.802Z,31.84
2022-08-20T10:40:30.530Z,31.70
2022-08-20T10:42:57.231Z,31.86
2022-08-20T10:45:23.914Z,32.03
2022-08-20T10:47:50.492Z,31.96
2022-08-20T10:50:17.810Z,32.03
2022-08-20T10:52:44.557Z,31.97
2022-08-20T10:55:11.517Z,31.89
2022-08-20T10:57:40.855Z,31.92
2022-08-20T11:00:08.405Z,32.18
2022-08-20T11:02:35.215Z,32.38
2022-08-20T11:05:03.185Z,32.53
2022-08-20T11:07:54.241Z,32.55
2022-08-20T11:10:19.952Z,32.72
2022-08-20T11:12:47.835Z,32.84
2022-08-20T11:15:15.734Z,32.51
2022-08-20T11:17:44.288Z,32.13
2022-08-20T11:20:14.019Z,32.03
2022-08-20T11:22:40.752Z,32.14
2022-08-20T11:25:08.216Z,32.11
2022-08-20T11:27:37.889Z,32.08
2022-08-20T11:30:06.263Z,32.08
2022-08-20T11:32:32.812Z,31.92
2022-08-20T11:34:59.559Z,31.75
2022-08-20T11:37:27.309Z,31.62
2022-08-20T11:39:54.187Z,31.50
2022-08-20T11:42:20.975Z,31.38
2022-08-20T11:44:47.560Z,31.37
2022-08-20T11:47:27.483Z,31.36
2022-08-20T11:50:02.619Z,31.32
2022-08-20T11:52:30.495Z,31.19
2022-08-20T11:54:58.117Z,31.22
2022-08-20T11:57:36.067Z,31.32
2022-08-20T12:00:06.887Z,31.40
2022-08-20T12:02:33.503Z,31.43
2022-08-20T12:05:00.401Z,31.46
2022-08-20T12:07:27.252Z,31.47
2022-08-20T12:09:54.332Z,31.57
2022-08-20T12:12:22.635Z,31.67
2022-08-20T12:14:49.950Z,31.66
2022-08-20T12:17:24.500Z,31.49
2022-08-20T12:19:53.880Z,31.15
2022-08-20T12:22:25.241Z,30.78
2022-08-20T12:24:56.184Z,30.46
2022-08-20T12:27:29.613Z,30.19
2022-08-20T12:29:59.021Z,29.96
2022-08-20T12:32:28.618Z,29.85
2022-08-20T12:34:56.597Z,29.81
2022-08-20T12:37:26.199Z,29.75
2022-08-20T12:39:55.768Z,29.69
2022-08-20T12:42:22.802Z,29.60
2022-08-20T12:44:49.616Z,29.53
2022-08-20T12:47:20.657Z,29.49
2022-08-20T12:49:52.320Z,29.46
2022-08-20T12:52:20.917Z,29.45
2022-08-20T12:54:47.964Z,29.48
2022-08-20T12:57:29.765Z,29.49
2022-08-20T13:00:09.826Z,29.47
2022-08-20T13:02:38.214Z,29.47
2022-08-20T13:05:06.251Z,29.48
2022-08-20T13:07:34.334Z,29.49
2022-08-20T13:10:01.854Z,29.52
2022-08-20T13:12:28.571Z,29.56
2022-08-20T13:14:55.217Z,29.57
2022-08-20T13:17:29.289Z,29.58
2022-08-20T13:20:08.952Z,29.64
2022-08-20T13:22:35.772Z,29.69
2022-08-20T13:25:02.423Z,29.66
2022-08-20T13:27:29.079Z,29.62
2022-08-20T13:29:58.847Z,29.58
2022-08-20T13:32:26.734Z,29.56
2022-08-20T13:34:53.660Z,29.55
2022-08-20T13:37:26.179Z,29.51
2022-08-20T13:39:57.368Z,29.47
2022-08-20T13:42:25.265Z,29.40
2022-08-20T13:44:52.519Z,29.41
2022-08-20T13:47:28.076Z,29.48
2022-08-20T13:50:00.669Z,29.52
2022-08-20T13:52:28.013Z,29.47
2022-08-20T13:54:54.713Z,29.42
2022-08-20T13:57:23.783Z,29.31
2022-08-20T13:59:52.530Z,29.20
2022-08-20T14:02:20.209Z,29.11
2022-08-20T14:04:48.611Z,29.01
2022-08-20T14:07:19.004Z,29.00
2022-08-20T14:09:48.866Z,29.06
2022-08-20T14:12:16.002Z,29.11
2022-08-20T14:14:43.152Z,29.17
2022-08-20T14:17:29.584Z,29.19
2022-08-20T14:20:02.365Z,28.99
2022-08-20T14:22:29.549Z,28.82
2022-08-20T14:24:56.376Z,28.66
2022-08-20T14:27:27.841Z,28.50
2022-08-20T14:29:58.881Z,28.35
2022-08-20T14:32:26.545Z,28.17
2022-08-20T14:34:54.517Z,27.93
2022-08-20T14:37:27.256Z,27.72
2022-08-20T14:39:56.633Z,27.50
2022-08-20T14:42:25.195Z,27.32
2022-08-20T14:44:52.060Z,27.29
2022-08-20T14:47:23.330Z,27.41
2022-08-20T14:49:51.988Z,27.46
2022-08-20T14:52:22.824Z,27.33
2022-08-20T14:54:51.210Z,27.28
2022-08-20T14:57:19.613Z,27.26
2022-08-20T14:59:48.077Z,27.23
2022-08-20T15:02:16.757Z,27.29
2022-08-20T15:04:44.578Z,27.42
2022-08-20T15:07:26.969Z,27.44
2022-08-20T15:09:54.313Z,27.42
2022-08-20T15:12:21.270Z,27.32
2022-08-20T15:14:49.048Z,27.21
2022-08-20T15:17:23.693Z,27.06
2022-08-20T15:19:50.908Z,26.94
2022-08-20T15:22:18.079Z,26.90
2022-08-20T15:24:44.609Z,26.86
2022-08-20T15:27:23.145Z,26.84
2022-08-20T15:29:51.431Z,26.83
2022-08-20T15:32:19.215Z,26.80
2022-08-20T15:34:46.141Z,26.75
2022-08-20T15:37:14.263Z,26.71
2022-08-20T15:39:42.537Z,26.66
2022-08-20T15:42:11.924Z,26.56
2022-08-20T15:44:39.168Z,26.45
2022-08-20T15:47:14.865Z,26.39
2022-08-20T15:49:42.682Z,26.30
2022-08-20T15:52:09.960Z,26.21
2022-08-20T15:54:37.743Z,26.15
2022-08-20T15:57:31.434Z,26.06
2022-08-20T16:00:07.359Z,25.95
2022-08-20T16:02:58.516Z,25.85
2022-08-20T16:06:00.370Z,25.72
2022-08-20T16:08:39.767Z,25.57
2022-08-20T16:11:20.358Z,25.46
2022-08-20T16:14:12.715Z,25.36
2022-08-20T16:16:49.686Z,25.28
2022-08-20T16:19:25.777Z,25.24
2022-08-20T16:21:53.737Z,25.20
2022-08-20T16:24:21.183Z,25.16
2022-08-20T16:26:56.942Z,25.14
2022-08-20T16:29:53.563Z,25.13
2022-08-20T16:32:35.879Z,25.12
2022-08-20T16:35:27.677Z,25.09
2022-08-20T16:38:02.269Z,25.07
2022-08-20T16:40:39.570Z,25.12
2022-08-20T16:43:07.964Z,25.19
2022-08-20T16:46:00.076Z,25.25
2022-08-20T16:48:39.258Z,25.39
2022-08-20T16:51:12.008Z,25.47
2022-08-20T16:53:38.864Z,25.41
2022-08-20T16:56:06.226Z,25.35
2022-08-20T16:58:33.168Z,25.31
2022-08-20T17:01:12.833Z,25.26
2022-08-20T17:03:49.283Z,25.20
2022-08-20T17:06:33.239Z,25.16
2022-08-20T17:09:07.204Z,25.07
2022-08-20T17:11:36.657Z,25.01
2022-08-20T17:14:13.655Z,24.94
2022-08-20T17:16:45.218Z,24.87
2022-08-20T17:19:32.011Z,24.78
2022-08-20T17:22:12.711Z,24.65
2022-08-20T17:24:39.490Z,24.56
2022-08-20T17:27:11.520Z,24.49
2022-08-20T17:29:53.418Z,24.41
2022-08-20T17:32:27.099Z,24.33
2022-08-20T17:34:59.593Z,24.25
2022-08-20T17:37:33.860Z,24.17
2022-08-20T17:40:14.606Z,24.10
2022-08-20T17:42:53.838Z,24.03
2022-08-20T17:45:42.310Z,23.94
2022-08-20T17:48:15.361Z,23.80
2022-08-20T17:50:43.372Z,23.61
2022-08-20T17:53:31.608Z,23.44
2022-08-20T17:56:02.518Z,23.27
2022-08-20T17:58:54.643Z,23.15
2022-08-20T18:01:23.941Z,23.05
2022-08-20T18:03:52.906Z,22.96
2022-08-20T18:06:46.691Z,22.86
2022-08-20T18:09:24.047Z,22.73
2022-08-20T18:11:58.822Z,22.58
2022-08-20T18:14:37.452Z,22.45
2022-08-20T18:17:23.532Z,22.34
2022-08-20T18:20:11.690Z,22.24
2022-08-20T18:23:07.585Z,22.13
2022-08-20T18:25:45.049Z,22.01
2022-08-20T18:28:14.628Z,21.93
2022-08-20T18:30:53.241Z,21.85
2022-08-20T18:33:31.376Z,21.77
2022-08-20T18:36:11.640Z,21.70
2022-08-20T18:38:41.366Z,21.64
2022-08-20T18:41:26.792Z,21.57
2022-08-20T18:44:11.495Z,21.47
2022-08-20T18:46:52.500Z,21.34
2022-08-20T18:49:28.131Z,21.21
2022-08-20T18:51:55.078Z,21.11
2022-08-20T18:54:33.090Z,21.04
2022-08-20T18:57:16.860Z,20.98
2022-08-20T18:59:48.559Z,20.88
2022-08-20T19:02:30.990Z,20.80
2022-08-20T19:05:02.627Z,20.73
2022-08-20T19:07:48.180Z,20.67
2022-08-20T19:10:34.165Z,20.59
2022-08-20T19:13:06.630Z,20.53
2022-08-20T19:15:38.187Z,20.47
2022-08-20T19:18:16.683Z,20.44
2022-08-20T19:20:56.151Z,20.40
2022-08-20T19:23:25.932Z,20.39
2022-08-20T19:26:06.352Z,20.38
2022-08-20T19:28:51.792Z,20.36
2022-08-20T19:31:27.990Z,20.33
2022-08-20T19:34:20.272Z,20.28
2022-08-20T19:37:27.528Z,20.21
2022-08-20T19:39:55.997Z,20.14
2022-08-20T19:42:43.143Z,20.12
2022-08-20T19:45:18.661Z,20.09
2022-08-20T19:48:31.214Z,20.05
2022-08-20T19:51:30.083Z,20.00
2022-08-20T19:53:56.855Z,19.95
2022-08-20T19:56:26.685Z,19.91
2022-08-20T19:59:06.848Z,19.87
2022-08-20T20:01:34.789Z,19.84
2022-08-20T20:04:08.418Z,19.81
2022-08-20T20:06:37.391Z,19.78
2022-08-20T20:09:13.597Z,19.76
2022-08-20T20:11:51.777Z,19.74
2022-08-20T20:14:20.582Z,19.69
2022-08-20T20:16:50.072Z,19.59
2022-08-20T20:19:27.758Z,19.53
2022-08-20T20:22:19.358Z,19.47
2022-08-20T20:25:00.042Z,19.41
2022-08-20T20:27:27.691Z,19.36
2022-08-20T20:30:04.459Z,19.33
2022-08-20T20:32:31.742Z,19.31
2022-08-20T20:35:00.112Z,19.29
2022-08-20T20:37:49.846Z,19.25
2022-08-20T20:40:29.056Z,19.23
2022-08-20T20:43:07.972Z,19.19
2022-08-20T20:45:43.607Z,19.12
2022-08-20T20:48:22.021Z,19.06
2022-08-20T20:50:50.915Z,19.00
2022-08-20T20:53:50.879Z,18.94
2022-08-20T20:56:42.004Z,18.85
2022-08-20T20:59:10.885Z,18.77
2022-08-20T21:01:48.940Z,18.73
2022-08-20T21:04:17.550Z,18.69
2022-08-20T21:06:44.228Z,18.67
2022-08-20T21:09:11.012Z,18.66
2022-08-20T21:11:37.636Z,18.65
2022-08-20T21:14:04.698Z,18.64
2022-08-20T21:16:31.294Z,18.62
2022-08-20T21:18:58.043Z,18.60
2022-08-20T21:21:24.753Z,18.59
2022-08-20T21:23:51.374Z,18.57
2022-08-20T21:26:18.038Z,18.52
2022-08-20T21:28:44.783Z,18.48
2022-08-20T21:31:11.450Z,18.43
2022-08-20T21:33:38.277Z,18.40
2022-08-20T21:36:04.994Z,18.36
2022-08-20T21:38:31.670Z,18.34
2022-08-20T21:40:58.719Z,18.30
2022-08-20T21:43:27.057Z,18.26
2022-08-20T21:45:59.364Z,18.24
2022-08-20T21:48:26.018Z,18.22
2022-08-20T21:50:52.648Z,18.19
2022-08-20T21:53:19.318Z,18.17
2022-08-20T21:55:46.059Z,18.15
2022-08-20T21:58:12.806Z,18.13
2022-08-20T22:00:52.111Z,18.14
2022-08-20T22:03:21.010Z,18.13
2022-08-20T22:05:49.119Z,18.10
2022-08-20T22:08:16.745Z,18.09
2022-08-20T22:10:43.426Z,18.06
2022-08-20T22:13:10.271Z,18.04
2022-08-20T22:15:38.611Z,18.01
2022-08-20T22:18:05.708Z,18.00
2022-08-20T22:20:32.759Z,17.99
2022-08-20T22:23:02.615Z,17.95
2022-08-20T22:25:29.250Z,17.91
2022-08-20T22:27:55.964Z,17.86
2022-08-20T22:30:23.012Z,17.83
2022-08-20T22:32:51.800Z,17.80
2022-08-20T22:35:19.341Z,17.78
2022-08-20T22:37:46.145Z,17.78
2022-08-20T22:40:12.894Z,17.78
2022-08-20T22:42:39.811Z,17.79
2022-08-20T22:45:13.454Z,17.77
2022-08-20T22:47:43.157Z,17.74
2022-08-20T22:50:14.130Z,17.70
2022-08-20T22:52:41.553Z,17.66
2022-08-20T22:55:09.490Z,17.63
2022-08-20T22:57:37.069Z,17.61
2022-08-20T23:00:08.211Z,17.57
2022-08-20T23:02:35.067Z,17.52
2022-08-20T23:05:02.275Z,17.48
2022-08-20T23:07:28.930Z,17.45
2022-08-20T23:09:55.631Z,17.44
2022-08-20T23:12:22.456Z,17.43
2022-08-20T23:14:49.097Z,17.41
2022-08-20T23:17:17.134Z,17.39
2022-08-20T23:19:45.333Z,17.40
2022-08-20T23:22:12.670Z,17.41
2022-08-20T23:24:40.268Z,17.40
2022-08-20T23:27:10.128Z,17.38
2022-08-20T23:29:36.673Z,17.37
2022-08-20T23:32:03.663Z,17.36
2022-08-20T23:34:30.306Z,17.35
2022-08-20T23:36:57.701Z,17.33
2022-08-20T23:39:25.433Z,17.31
2022-08-20T23:41:52.165Z,17.29
2022-08-20T23:44:26.084Z,17.28
2022-08-20T23:47:00.170Z,17.26
2022-08-20T23:49:28.160Z,17.23
2022-08-20T23:55:29.702Z,17.18
2022-08-20T23:57:56.856Z,17.14
